Lumby, Canada
Current Conditions -  °F | °C
As of 1:00 AM on Monday 24 Nov 2014 (Local Time) from CYLW Reporting Station
Broken Clouds Broken Clouds  
Wind Chill: 39°   Ceiling: 9500
Heat Index: 39°   Visibility: 9mi
Dew Point: 28°   Wind: 2mph
Humidity: 65%   Direction: NA
Pressure: 30.21"   Gusts: NA
Location:  50.25°N, 118.97°W
Report Text: CYLW 240900Z AUTO VRB02KT 9SM BKN095 04/M02 A3021 RMK SLP244
Loading
Personal Weather Stations






























Interactive Weather Map New forecast layout! Learn more

10-Day Weather Forecast

Advertisements
Track Severe Weather on mobile